Time;durP1;ratioP1;P1;durP2;ratioP2;P2;SDS_P1;SDS_P2;PMS_P1;PMS_P2;Temp;Humidity;BMP_temperature;BMP_pressure;BME280_temperature;BME280_humidity;BME280_pressure;Samples;Min_cycle;Max_cycle;Signal;HPM_P1;HPM_P2
2024/02/07 06:43:59;;;;;;;;;;;;;;;;;;5092526;23;19951;-89
2024/02/07 06:46:26;;;;;;;;;;;;;;;;;;4924086;29;19919;-91
2024/02/07 06:48:51;;;;;;;;;;;;;;;;;;4923140;29;19957;-89
2024/02/07 06:51:16;;;;;;;;;;;;;;;;;;4919334;29;19919;-90
2024/02/07 06:53:43;;;;;;;;;;;;;;;;;;4920782;29;20025;-89
2024/02/07 06:56:08;;;;;;;;;;;;;;;;;;4923907;29;19974;-92
2024/02/07 06:58:33;;;;;;;;;;;;;;;;;;4923178;29;19919;-93
2024/02/07 07:00:59;;;;;;;;;;;;;;;;;;4918834;29;19915;-93
2024/02/07 07:03:27;;;;;;;;;;;;;;;;;;4923741;29;19962;-92
2024/02/07 07:05:53;;;;;;;;;;;;;;;;;;4924047;29;19974;-92
2024/02/07 07:08:18;;;;;;;;;;;;;;;;;;4923928;29;19911;-93
2024/02/07 10:33:20;;;;;;;;;;;;;;;;;;5159848;23;20345;-92
2024/02/07 10:35:47;;;;;;;;;;;;;;;;;;4936156;29;19918;-93
2024/02/07 10:38:12;;;;;;;;;;;;;;;;;;4937422;29;19937;-96
2024/02/07 10:40:39;;;;;;;;;;;;;;;;;;4936929;29;20369;-95
2024/02/07 10:43:06;;;;;;;;;;;;;;;;;;4940239;29;19898;-96
2024/02/07 10:45:31;;;;;;;;;;;;;;;;;;4952673;29;20340;-92
2024/02/07 10:47:59;;;;;;;;;;;;;;;;;;4950205;29;19914;-94
2024/02/07 10:50:26;;;;;;;;;;;;;;;;;;4952517;29;19915;-92
2024/02/07 10:52:51;;;;;;;;;;;;;;;;;;4951490;29;19938;-94
2024/02/07 10:55:23;;;;;;;;;;;;;;;;;;4953191;29;19914;-93
2024/02/07 10:57:50;;;;;;;;;;;;;;;;;;4952844;29;19915;-93
2024/02/07 11:00:18;;;;;;;;;;;;;;;;;;4953338;29;19915;-91
2024/02/07 11:02:47;;;;;;;;;;;;;;;;;;4952628;29;19919;-92
2024/02/07 11:05:13;;;;;;;;;;;;;;;;;;4943935;29;19914;-93
2024/02/07 11:07:39;;;;;;;;;;;;;;;;;;4938458;29;19914;-90
2024/02/07 11:10:04;;;;;;;;;;;;;;;;;;4941105;29;20367;-91
2024/02/07 11:12:30;;;;;;;;;;;;;;;;;;4939406;29;20017;-91
2024/02/07 11:14:57;;;;;;;;;;;;;;;;;;4942176;29;19966;-95
2024/02/07 11:17:22;;;;;;;;;;;;;;;;;;4937598;29;19962;-94
2024/02/07 11:19:48;;;;;;;;;;;;;;;;;;4937694;29;20005;-90
2024/02/07 11:22:30;;;;;;;;;;;;;;;;;;4937293;29;19962;-91
2024/02/07 11:24:57;;;;;;;;;;;;;;;;;;4936238;29;20301;-90
2024/02/07 11:27:22;;;;;;;;;;;;;;;;;;4936861;29;19915;-88
2024/02/07 11:29:48;;;;;;;;;;;;;;;;;;4936974;29;19931;-89
2024/02/07 11:32:13;;;;;;;;;;;;;;;;;;4936080;29;19922;-90
2024/02/07 11:34:39;;;;;;;;;;;;;;;;;;4937831;29;19919;-91
2024/02/07 11:37:07;;;;;;;;;;;;;;;;;;4941538;29;19914;-91
2024/02/07 11:39:39;;;;;;;;;;;;;;;;;;4942905;29;19911;-91
2024/02/07 11:42:20;;;;;;;;;;;;;;;;;;4925081;29;19919;-91
2024/02/07 11:44:53;;;;;;;;;;;;;;;;;;4944221;29;19962;-91
2024/02/07 11:47:25;;;;;;;;;;;;;;;;;;4942891;29;19915;-91
2024/02/07 11:49:57;;;;;;;;;;;;;;;;;;4940992;29;19919;-86
2024/02/07 11:52:29;;;;;;;;;;;;;;;;;;4940107;29;20265;-87
2024/02/07 11:55:11;;;;;;;;;;;;;;;;;;4939349;29;19977;-91
2024/02/07 11:57:40;;;;;;;;;;;;;;;;;;4940558;29;20326;-91
2024/02/07 12:00:06;;;;;;;;;;;;;;;;;;4939857;29;19985;-93
2024/02/07 12:02:31;;;;;;;;;;;;;;;;;;4939658;29;20313;-93
2024/02/07 12:04:57;;;;;;;;;;;;;;;;;;4939854;29;19970;-93
2024/02/07 12:07:23;;;;;;;;;;;;;;;;;;4939630;29;19915;-92
2024/02/07 12:09:48;;;;;;;;;;;;;;;;;;4939129;29;19919;-92
2024/02/07 12:12:14;;;;;;;;;;;;;;;;;;4939325;29;19925;-92
2024/02/07 12:14:40;;;;;;;;;;;;;;;;;;4939882;29;20013;-93
2024/02/07 12:17:08;;;;;;;;;;;;;;;;;;4939498;29;20366;-92
2024/02/07 12:19:35;;;;;;;;;;;;;;;;;;4947108;29;19984;-92
2024/02/07 12:22:01;;;;;;;;;;;;;;;;;;4947721;29;19919;-93
2024/02/07 12:24:28;;;;;;;;;;;;;;;;;;4942615;29;19919;-94
2024/02/07 12:26:53;;;;;;;;;;;;;;;;;;4940160;29;20017;-93
2024/02/07 12:29:19;;;;;;;;;;;;;;;;;;4940530;29;19965;-95
2024/02/07 12:31:45;;;;;;;;;;;;;;;;;;4939505;29;19921;-94
2024/02/07 12:34:10;;;;;;;;;;;;;;;;;;4923181;29;19973;-92
2024/02/07 12:36:35;;;;;;;;;;;;;;;;;;4940234;29;19914;-91
2024/02/07 12:39:01;;;;;;;;;;;;;;;;;;4939158;29;19915;-92
2024/02/07 12:41:26;;;;;;;;;;;;;;;;;;4939351;29;19922;-92
2024/02/07 12:43:54;;;;;;;;;;;;;;;;;;4938926;29;19938;-94
2024/02/07 12:46:19;;;;;;;;;;;;;;;;;;4939062;29;20432;-92
2024/02/07 17:48:57;;;;;;;;;;;;;;;;;;5002296;23;19923;-93
2024/02/07 17:51:22;;;;;;;;;;;;;;;;;;4924158;29;20033;-95
2024/02/07 17:53:48;;;;;;;;;;;;;;;;;;4939958;29;19958;-96
2024/02/07 17:56:13;;;;;;;;;;;;;;;;;;4939241;29;19946;-95
2024/02/07 17:58:39;;;;;;;;;;;;;;;;;;4939371;29;20282;-95
2024/02/07 18:01:04;;;;;;;;;;;;;;;;;;4938932;29;20376;-94
2024/02/07 18:03:29;;;;;;;;;;;;;;;;;;4939577;29;20344;-94
2024/02/07 18:05:55;;;;;;;;;;;;;;;;;;4937283;29;19937;-94
2024/02/07 18:08:20;;;;;;;;;;;;;;;;;;4937460;29;19994;-94
2024/02/07 18:10:46;;;;;;;;;;;;;;;;;;4937461;29;19945;-94
2024/02/07 18:13:11;;;;;;;;;;;;;;;;;;4942498;29;19918;-93
2024/02/07 18:15:37;;;;;;;;;;;;;;;;;;4937347;29;20362;-93
2024/02/07 18:18:03;;;;;;;;;;;;;;;;;;4937179;29;19990;-93
2024/02/07 18:20:31;;;;;;;;;;;;;;;;;;4937254;29;19969;-93
2024/02/07 18:22:57;;;;;;;;;;;;;;;;;;4937327;29;19915;-92
2024/02/07 18:25:23;;;;;;;;;;;;;;;;;;4936934;29;20325;-92
2024/02/07 18:27:48;;;;;;;;;;;;;;;;;;4936811;29;19918;-93
2024/02/07 18:30:14;;;;;;;;;;;;;;;;;;4936923;29;19950;-93
2024/02/07 18:32:41;;;;;;;;;;;;;;;;;;4936857;29;19962;-92
2024/02/07 18:35:06;;;;;;;;;;;;;;;;;;4936769;29;19942;-91
2024/02/07 18:37:31;;;;;;;;;;;;;;;;;;4936688;29;20350;-89
2024/02/07 18:39:57;;;;;;;;;;;;;;;;;;4937121;29;19915;-90
2024/02/07 18:42:25;;;;;;;;;;;;;;;;;;4936542;29;19926;-91
2024/02/07 18:44:50;;;;;;;;;;;;;;;;;;4936662;29;20013;-91
2024/02/07 18:47:15;;;;;;;;;;;;;;;;;;4936155;29;19978;-91
2024/02/07 18:49:41;;;;;;;;;;;;;;;;;;4937275;29;19919;-91
2024/02/07 18:52:06;;;;;;;;;;;;;;;;;;4936592;29;20357;-92
2024/02/07 18:54:32;;;;;;;;;;;;;;;;;;4936783;29;19911;-91
2024/02/07 18:56:57;;;;;;;;;;;;;;;;;;4937499;29;19915;-92
2024/02/07 18:59:22;;;;;;;;;;;;;;;;;;4937355;29;19961;-95
2024/02/07 19:01:50;;;;;;;;;;;;;;;;;;4945635;29;20001;-95
2024/02/07 19:04:18;;;;;;;;;;;;;;;;;;4941240;29;20433;-95
2024/02/07 19:06:44;;;;;;;;;;;;;;;;;;4937560;29;19919;-96
2024/02/07 19:09:09;;;;;;;;;;;;;;;;;;4937282;29;19962;-95
2024/02/07 19:11:35;;;;;;;;;;;;;;;;;;4937824;29;19922;-96
2024/02/07 19:14:00;;;;;;;;;;;;;;;;;;4940208;29;20270;-96
2024/02/07 19:16:27;;;;;;;;;;;;;;;;;;4939055;29;20332;-96
2024/02/07 19:18:52;;;;;;;;;;;;;;;;;;4937947;29;20425;-95
2024/02/07 19:21:19;;;;;;;;;;;;;;;;;;4938663;29;19942;-94
2024/02/07 19:23:48;;;;;;;;;;;;;;;;;;4937343;29;20001;-95
2024/02/07 19:26:16;;;;;;;;;;;;;;;;;;4937161;29;20017;-95
2024/02/07 19:28:42;;;;;;;;;;;;;;;;;;4937043;29;20034;-92
2024/02/07 19:31:07;;;;;;;;;;;;;;;;;;4938117;29;19958;-95
2024/02/07 19:33:32;;;;;;;;;;;;;;;;;;4936800;29;19918;-95
2024/02/07 19:35:59;;;;;;;;;;;;;;;;;;4936727;29;19987;-94
2024/02/07 19:38:25;;;;;;;;;;;;;;;;;;4937041;29;20366;-94
2024/02/07 19:40:50;;;;;;;;;;;;;;;;;;4937743;29;19915;-95
2024/02/07 19:43:15;;;;;;;;;;;;;;;;;;4937013;29;20405;-92
2024/02/07 19:45:41;;;;;;;;;;;;;;;;;;4936901;29;20341;-93
2024/02/07 19:48:06;;;;;;;;;;;;;;;;;;4936855;29;19943;-92
2024/02/07 19:50:32;;;;;;;;;;;;;;;;;;4921030;29;20440;-95
2024/02/07 19:52:59;;;;;;;;;;;;;;;;;;4936303;29;19922;-93
2024/02/07 19:55:24;;;;;;;;;;;;;;;;;;4935682;29;20321;-93
2024/02/07 19:57:52;;;;;;;;;;;;;;;;;;4935990;29;19922;-95
2024/02/07 20:00:17;;;;;;;;;;;;;;;;;;4939943;29;19914;-92
2024/02/07 20:02:43;;;;;;;;;;;;;;;;;;4940812;29;19919;-93
2024/02/07 20:05:08;;;;;;;;;;;;;;;;;;4941165;29;19930;-95
2024/02/07 20:07:33;;;;;;;;;;;;;;;;;;4942514;29;20021;-95
2024/02/07 20:09:59;;;;;;;;;;;;;;;;;;4944017;29;19915;-95
2024/02/07 20:12:24;;;;;;;;;;;;;;;;;;4945827;29;19997;-96
2024/02/07 20:14:51;;;;;;;;;;;;;;;;;;4949790;29;20006;-95
2024/02/07 20:17:17;;;;;;;;;;;;;;;;;;4926656;29;19925;-95
2024/02/07 20:19:42;;;;;;;;;;;;;;;;;;4943379;29;19962;-94
2024/02/07 20:22:08;;;;;;;;;;;;;;;;;;4942975;29;19919;-96
2024/02/07 20:24:33;;;;;;;;;;;;;;;;;;4941937;29;20354;-95
2024/02/07 20:26:59;;;;;;;;;;;;;;;;;;4940247;29;19915;-93
2024/02/07 20:29:25;;;;;;;;;;;;;;;;;;4939377;29;19911;-96
2024/02/07 20:31:50;;;;;;;;;;;;;;;;;;4939512;29;19915;-94
2024/02/07 20:34:19;;;;;;;;;;;;;;;;;;4939380;29;19911;-95
2024/02/07 20:36:44;;;;;;;;;;;;;;;;;;4941095;29;19915;-94
2024/02/07 20:39:09;;;;;;;;;;;;;;;;;;4944157;29;19949;-92
2024/02/07 20:41:41;;;;;;;;;;;;;;;;;;4943425;29;19957;-96
2024/02/07 20:44:14;;;;;;;;;;;;;;;;;;4942551;29;20029;-94
2024/02/07 20:46:39;;;;;;;;;;;;;;;;;;4941143;29;19923;-96
2024/02/07 20:49:05;;;;;;;;;;;;;;;;;;4941161;29;20362;-96
2024/02/07 20:51:30;;;;;;;;;;;;;;;;;;4941918;29;19978;-96
2024/02/07 20:53:57;;;;;;;;;;;;;;;;;;4943737;29;19914;-96
2024/02/07 20:56:23;;;;;;;;;;;;;;;;;;4942462;29;19914;-96
2024/02/07 20:58:48;;;;;;;;;;;;;;;;;;4941206;29;19922;-96
2024/02/07 21:01:14;;;;;;;;;;;;;;;;;;4941887;29;19962;-96
2024/02/07 21:03:39;;;;;;;;;;;;;;;;;;4943079;29;19914;-96
2024/02/07 21:06:04;;;;;;;;;;;;;;;;;;4942531;29;19986;-96
2024/02/07 21:08:30;;;;;;;;;;;;;;;;;;4944496;29;20389;-96
2024/02/07 21:10:55;;;;;;;;;;;;;;;;;;4943940;29;19922;-96
2024/02/07 21:13:20;;;;;;;;;;;;;;;;;;4942255;29;20319;-96
2024/02/07 21:15:46;;;;;;;;;;;;;;;;;;4942640;29;19914;-96
2024/02/07 21:18:11;;;;;;;;;;;;;;;;;;4942742;29;20001;-96
2024/02/07 21:20:37;;;;;;;;;;;;;;;;;;4941029;29;19973;-96
2024/02/07 21:23:02;;;;;;;;;;;;;;;;;;4942053;29;19914;-96
2024/02/07 21:25:28;;;;;;;;;;;;;;;;;;4942015;29;19918;-94
2024/02/07 21:27:53;;;;;;;;;;;;;;;;;;4945139;29;19919;-95
2024/02/07 21:30:19;;;;;;;;;;;;;;;;;;4940815;29;19914;-93
2024/02/07 21:32:44;;;;;;;;;;;;;;;;;;4940184;29;19915;-94
2024/02/07 21:35:10;;;;;;;;;;;;;;;;;;4940363;29;20005;-93
2024/02/07 21:37:35;;;;;;;;;;;;;;;;;;4939309;29;19922;-94
2024/02/07 21:40:01;;;;;;;;;;;;;;;;;;4938898;29;19919;-95
2024/02/07 21:42:26;;;;;;;;;;;;;;;;;;4938993;29;19915;-93
2024/02/07 21:44:51;;;;;;;;;;;;;;;;;;4938908;29;20415;-96
2024/02/07 21:47:17;;;;;;;;;;;;;;;;;;4923169;29;19925;-94
2024/02/07 21:49:43;;;;;;;;;;;;;;;;;;4938534;29;19919;-95
2024/02/07 21:52:08;;;;;;;;;;;;;;;;;;4938638;29;19915;-95
2024/02/07 21:54:33;;;;;;;;;;;;;;;;;;4938683;29;19933;-95
2024/02/07 21:56:59;;;;;;;;;;;;;;;;;;4938518;29;19964;-96
2024/02/07 21:59:24;;;;;;;;;;;;;;;;;;4938870;29;19969;-95
2024/02/07 22:01:50;;;;;;;;;;;;;;;;;;4941123;29;19918;-94
2024/02/07 22:04:15;;;;;;;;;;;;;;;;;;4954298;29;19915;-95
2024/02/07 22:06:42;;;;;;;;;;;;;;;;;;4952007;29;19923;-96
2024/02/07 22:09:07;;;;;;;;;;;;;;;;;;4941225;29;19915;-94
2024/02/07 22:11:33;;;;;;;;;;;;;;;;;;4940110;29;20049;-94
2024/02/07 22:13:58;;;;;;;;;;;;;;;;;;4938495;29;19945;-94
2024/02/07 22:16:25;;;;;;;;;;;;;;;;;;4938597;29;19919;-95
2024/02/07 22:18:51;;;;;;;;;;;;;;;;;;4938045;29;19921;-95
2024/02/07 22:21:16;;;;;;;;;;;;;;;;;;4937474;29;19914;-93
2024/02/07 22:23:41;;;;;;;;;;;;;;;;;;4937649;29;19919;-93
2024/02/07 22:26:07;;;;;;;;;;;;;;;;;;4937244;29;19915;-93
2024/02/07 22:28:32;;;;;;;;;;;;;;;;;;4937134;29;19921;-93
2024/02/07 22:30:57;;;;;;;;;;;;;;;;;;4938419;29;20001;-96
2024/02/07 22:33:23;;;;;;;;;;;;;;;;;;4937132;29;19918;-94
2024/02/07 22:35:48;;;;;;;;;;;;;;;;;;4936965;29;19922;-96
2024/02/07 22:38:14;;;;;;;;;;;;;;;;;;4937317;29;20006;-96
2024/02/07 22:40:39;;;;;;;;;;;;;;;;;;4937030;29;19915;-93
2024/02/07 22:43:04;;;;;;;;;;;;;;;;;;4936878;29;19915;-94
2024/02/07 22:45:30;;;;;;;;;;;;;;;;;;4936810;29;19960;-95
2024/02/07 22:47:56;;;;;;;;;;;;;;;;;;4936891;29;20318;-94
2024/02/07 22:50:21;;;;;;;;;;;;;;;;;;4936934;29;19926;-96
2024/02/07 22:52:47;;;;;;;;;;;;;;;;;;4936737;29;19915;-96
2024/02/07 22:55:12;;;;;;;;;;;;;;;;;;4937666;29;19915;-95
2024/02/07 22:57:37;;;;;;;;;;;;;;;;;;4943545;29;19923;-96
2024/02/07 23:00:05;;;;;;;;;;;;;;;;;;4947669;29;19923;-94
2024/02/07 23:02:30;;;;;;;;;;;;;;;;;;4951677;29;20009;-93
